createdAt,value
2017-10-28T00:00:02.793Z,6.10
2017-10-28T00:02:30.600Z,5.45
2017-10-28T00:04:58.347Z,4.07
2017-10-28T00:07:26.092Z,4.97
2017-10-28T00:09:53.911Z,3.12
2017-10-28T00:12:21.663Z,3.10
2017-10-28T00:14:49.409Z,3.30
2017-10-28T00:17:17.247Z,2.97
2017-10-28T00:19:44.993Z,3.25
2017-10-28T00:22:12.763Z,3.47
2017-10-28T00:24:40.580Z,4.25
2017-10-28T00:27:08.333Z,3.75
2017-10-28T00:29:36.090Z,3.10
2017-10-28T00:32:09.616Z,3.83
2017-10-28T00:34:43.720Z,4.20
2017-10-28T00:37:12.296Z,3.28
2017-10-28T00:39:40.051Z,4.57
2017-10-28T00:42:07.796Z,3.83
2017-10-28T00:44:35.614Z,4.12
2017-10-28T00:47:03.366Z,4.37
2017-10-28T00:49:31.115Z,4.95
2017-10-28T00:51:59.692Z,5.62
2017-10-28T00:54:28.226Z,4.20
2017-10-28T00:56:55.975Z,5.03
2017-10-28T00:59:23.791Z,4.68
2017-10-28T01:01:52.303Z,4.87
2017-10-28T01:04:20.061Z,4.87
2017-10-28T01:06:47.868Z,3.78
2017-10-28T01:09:15.618Z,4.40
2017-10-28T01:11:43.368Z,5.12
2017-10-28T01:14:11.171Z,5.05
2017-10-28T01:16:38.919Z,5.47
2017-10-28T01:19:06.672Z,4.82
2017-10-28T01:21:34.494Z,5.22
2017-10-28T01:24:02.249Z,6.50
2017-10-28T01:26:29.996Z,5.20
2017-10-28T01:28:58.568Z,6.30
2017-10-28T01:31:27.149Z,5.80
2017-10-28T01:33:54.918Z,5.37
2017-10-28T01:36:23.487Z,4.72
2017-10-28T01:38:52.007Z,4.95
2017-10-28T01:41:19.756Z,4.22
2017-10-28T01:43:47.565Z,4.35
2017-10-28T01:46:15.327Z,4.25
2017-10-28T01:48:43.085Z,4.03
2017-10-28T01:51:11.267Z,3.08
2017-10-28T01:53:39.012Z,3.60
2017-10-28T01:56:06.761Z,3.72
2017-10-28T01:58:34.575Z,3.22
2017-10-28T02:01:03.088Z,4.20
2017-10-28T02:03:30.852Z,3.53
2017-10-28T02:05:58.656Z,4.10
2017-10-28T02:08:26.404Z,4.53
2017-10-28T02:10:54.155Z,4.25
2017-10-28T02:13:21.969Z,4.20
2017-10-28T02:15:50.479Z,4.75
2017-10-28T02:18:18.237Z,4.20
2017-10-28T02:20:46.044Z,5.53
2017-10-28T02:23:13.805Z,6.15
2017-10-28T02:25:41.559Z,6.93
2017-10-28T02:28:09.372Z,5.15
2017-10-28T02:30:37.132Z,5.53
2017-10-28T02:33:05.637Z,6.47
2017-10-28T02:35:33.448Z,8.68
2017-10-28T02:38:01.197Z,7.18
2017-10-28T02:40:28.950Z,7.28
2017-10-28T02:42:56.761Z,9.10
2017-10-28T02:45:24.513Z,9.25
2017-10-28T02:47:53.035Z,9.40
2017-10-28T02:50:20.848Z,9.25
2017-10-28T02:52:49.370Z,11.52
2017-10-28T02:55:17.119Z,11.25
2017-10-28T02:57:44.935Z,10.50
2017-10-28T03:00:12.693Z,11.65
2017-10-28T03:02:40.452Z,10.98
2017-10-28T03:05:08.268Z,12.40
2017-10-28T03:07:36.023Z,11.57
2017-10-28T03:10:03.783Z,11.10
2017-10-28T03:12:31.612Z,11.18
2017-10-28T03:14:59.372Z,12.68
2017-10-28T03:17:27.133Z,11.25
2017-10-28T03:19:54.950Z,10.38
2017-10-28T03:22:22.708Z,11.60
2017-10-28T03:24:50.460Z,10.45
2017-10-28T03:27:18.276Z,10.65
2017-10-28T03:29:46.024Z,9.15
2017-10-28T03:32:13.772Z,11.18
2017-10-28T03:34:41.584Z,9.25
2017-10-28T03:37:10.116Z,10.48
2017-10-28T03:39:37.861Z,9.30
2017-10-28T03:42:05.671Z,9.23
2017-10-28T03:44:33.427Z,9.90
2017-10-28T03:47:01.228Z,10.02
2017-10-28T03:49:29.039Z,7.90
2017-10-28T03:51:56.787Z,8.85
2017-10-28T03:54:24.550Z,9.27
2017-10-28T03:56:52.375Z,8.45
2017-10-28T03:59:20.125Z,7.65
2017-10-28T04:01:48.645Z,6.87
2017-10-28T04:04:16.453Z,7.85
2017-10-28T04:06:44.201Z,7.03
2017-10-28T04:09:11.958Z,7.47
2017-10-28T04:11:39.767Z,6.90
2017-10-28T04:14:07.516Z,7.28
2017-10-28T04:16:36.040Z,7.62
2017-10-28T04:19:03.863Z,6.07
2017-10-28T04:21:32.376Z,5.40
2017-10-28T04:24:00.120Z,6.28
2017-10-28T04:26:27.927Z,6.05
2017-10-28T04:28:55.677Z,8.75
2017-10-28T04:31:23.424Z,6.93
2017-10-28T04:33:51.227Z,7.20
2017-10-28T04:36:18.980Z,8.15
2017-10-28T04:38:46.723Z,7.57
2017-10-28T04:41:14.532Z,7.00
2017-10-28T04:43:43.048Z,6.25
2017-10-28T04:46:10.791Z,7.18
2017-10-28T04:48:38.607Z,6.00
2017-10-28T04:51:06.355Z,6.55
2017-10-28T04:53:34.104Z,6.80
2017-10-28T04:56:01.917Z,5.60
2017-10-28T04:58:30.445Z,6.50
2017-10-28T05:00:58.191Z,6.65
2017-10-28T05:03:26.003Z,6.70
2017-10-28T05:05:53.753Z,6.10
2017-10-28T05:08:21.511Z,7.68
2017-10-28T05:10:49.337Z,7.37
2017-10-28T05:13:17.092Z,6.70
2017-10-28T05:15:44.846Z,7.00
2017-10-28T05:18:12.656Z,6.55
2017-10-28T05:20:40.407Z,6.57
2017-10-28T05:23:08.150Z,6.60
2017-10-28T05:25:35.956Z,6.12
2017-10-28T05:28:03.708Z,6.50
2017-10-28T05:30:31.458Z,6.97
2017-10-28T05:32:59.407Z,8.10
2017-10-28T05:35:27.153Z,5.00
2017-10-28T05:37:54.904Z,5.50
2017-10-28T05:40:22.714Z,5.45
2017-10-28T05:42:50.467Z,5.90
2017-10-28T05:45:18.216Z,5.95
2017-10-28T05:47:46.033Z,6.05
2017-10-28T05:50:14.568Z,7.60
2017-10-28T05:52:42.336Z,6.00
2017-10-28T05:55:10.165Z,5.37
2017-10-28T05:57:37.960Z,5.10
2017-10-28T06:00:05.716Z,5.82
2017-10-28T06:02:33.540Z,5.68
2017-10-28T06:05:01.289Z,5.87
2017-10-28T06:07:29.807Z,5.55
2017-10-28T06:09:57.609Z,6.12
2017-10-28T06:12:25.365Z,5.22
2017-10-28T06:14:53.122Z,5.70
2017-10-28T06:17:20.937Z,5.87
2017-10-28T06:19:48.689Z,6.57
2017-10-28T06:22:16.440Z,7.12
2017-10-28T06:24:45.026Z,5.47
2017-10-28T06:27:13.547Z,5.55
2017-10-28T06:29:41.300Z,6.12
2017-10-28T06:32:09.104Z,6.45
2017-10-28T06:34:36.852Z,5.40
2017-10-28T06:37:04.609Z,5.30
2017-10-28T06:39:32.422Z,5.50
2017-10-28T06:42:00.179Z,4.80
2017-10-28T06:44:27.926Z,7.30
2017-10-28T06:46:56.508Z,5.82
2017-10-28T06:49:25.031Z,5.00
2017-10-28T06:51:52.776Z,4.25
2017-10-28T06:54:20.584Z,6.32
2017-10-28T06:56:48.337Z,6.00
2017-10-28T06:59:16.079Z,5.62
2017-10-28T07:01:44.036Z,6.78
2017-10-28T07:04:11.787Z,5.78
2017-10-28T07:06:39.541Z,5.43
2017-10-28T07:09:07.353Z,5.55
2017-10-28T07:11:35.123Z,6.68
2017-10-28T07:14:02.876Z,5.82
2017-10-28T07:16:30.684Z,6.57
2017-10-28T07:18:59.202Z,6.82
2017-10-28T07:21:26.949Z,6.03
2017-10-28T07:23:54.755Z,5.53
2017-10-28T07:26:22.500Z,6.05
2017-10-28T07:28:50.251Z,5.95
2017-10-28T07:31:18.055Z,5.00
2017-10-28T07:33:46.568Z,5.40
2017-10-28T07:36:14.317Z,6.82
2017-10-28T07:38:42.127Z,5.55
2017-10-28T07:41:09.885Z,5.03
2017-10-28T07:43:37.637Z,5.75
2017-10-28T07:46:05.453Z,6.35
2017-10-28T07:48:33.996Z,5.00
2017-10-28T07:51:01.808Z,6.03
2017-10-28T07:53:29.623Z,4.87
2017-10-28T07:55:57.368Z,5.05
2017-10-28T07:58:25.116Z,5.28
2017-10-28T08:00:52.923Z,6.00
2017-10-28T08:03:20.666Z,6.37
2017-10-28T08:05:48.416Z,5.60
2017-10-28T08:08:16.224Z,5.28
2017-10-28T08:10:44.744Z,4.90
2017-10-28T08:13:12.487Z,5.72
2017-10-28T08:15:40.308Z,5.12
2017-10-28T08:18:08.057Z,4.68
2017-10-28T08:20:36.568Z,4.62
2017-10-28T08:23:05.160Z,4.30
2017-10-28T08:25:33.675Z,4.85
2017-10-28T08:28:01.435Z,3.97
2017-10-28T08:30:29.243Z,4.95
2017-10-28T08:32:57.007Z,5.35
2017-10-28T08:35:25.520Z,4.22
2017-10-28T08:37:53.343Z,4.45
2017-10-28T08:40:21.095Z,3.42
2017-10-28T08:42:48.844Z,3.83
2017-10-28T08:45:17.254Z,4.95
2017-10-28T08:47:46.418Z,4.10
2017-10-28T08:50:14.192Z,4.57
2017-10-28T08:52:42.000Z,3.45
2017-10-28T08:55:09.753Z,4.65
2017-10-28T08:57:37.512Z,4.00
2017-10-28T09:00:05.331Z,4.05
2017-10-28T09:02:33.090Z,3.95
2017-10-28T09:05:00.877Z,3.60
2017-10-28T09:07:28.828Z,3.90
2017-10-28T09:09:56.638Z,2.60
2017-10-28T09:12:24.409Z,2.50
2017-10-28T09:14:52.234Z,2.72
2017-10-28T09:17:20.747Z,3.20
2017-10-28T09:19:48.504Z,3.30
2017-10-28T09:22:16.615Z,3.72
2017-10-28T09:24:44.412Z,3.45
2017-10-28T09:27:12.947Z,3.03
2017-10-28T09:29:40.901Z,2.70
2017-10-28T09:32:08.651Z,3.10
2017-10-28T09:34:36.520Z,3.25
2017-10-28T09:37:05.100Z,4.57
2017-10-28T09:39:33.551Z,3.30
2017-10-28T09:42:02.068Z,3.42
2017-10-28T09:44:29.887Z,4.30
2017-10-28T09:46:58.409Z,4.18
2017-10-28T09:49:26.159Z,6.82
2017-10-28T09:51:53.983Z,4.50
2017-10-28T09:54:22.536Z,4.45
2017-10-28T09:56:50.280Z,5.65
2017-10-28T09:59:18.090Z,4.25
2017-10-28T10:01:46.604Z,4.20
2017-10-28T10:04:14.359Z,3.90
2017-10-28T10:06:42.165Z,4.45
2017-10-28T10:09:09.922Z,4.50
2017-10-28T10:11:37.837Z,4.28
2017-10-28T10:14:05.662Z,3.62
2017-10-28T10:16:33.406Z,4.35
2017-10-28T10:19:01.156Z,3.40
2017-10-28T10:21:28.967Z,3.75
2017-10-28T10:23:57.492Z,4.30
2017-10-28T10:26:25.401Z,5.65
2017-10-28T10:28:53.223Z,3.35
2017-10-28T10:31:20.984Z,2.85
2017-10-28T10:33:48.747Z,3.60
2017-10-28T10:36:16.560Z,4.62
2017-10-28T10:38:45.075Z,4.07
2017-10-28T10:41:12.833Z,3.50
2017-10-28T10:43:40.653Z,3.30
2017-10-28T10:46:08.410Z,2.80
2017-10-28T10:48:36.167Z,3.05
2017-10-28T10:51:04.002Z,2.53
2017-10-28T10:53:31.797Z,3.35
2017-10-28T10:55:59.557Z,3.20
2017-10-28T10:58:27.375Z,3.83
2017-10-28T11:00:55.139Z,12.48
2017-10-28T11:03:22.895Z,2.60
2017-10-28T11:05:50.707Z,2.90
2017-10-28T11:08:18.466Z,4.50
2017-10-28T11:10:46.233Z,4.05
2017-10-28T11:13:14.053Z,3.20
2017-10-28T11:15:41.807Z,3.40
2017-10-28T11:18:09.563Z,4.57
2017-10-28T11:20:37.381Z,3.40
2017-10-28T11:23:05.130Z,3.70
2017-10-28T11:25:34.120Z,3.50
2017-10-28T11:28:01.941Z,5.82
2017-10-28T11:30:29.703Z,4.35
2017-10-28T11:32:57.459Z,4.60
2017-10-28T11:35:25.272Z,3.58
2017-10-28T11:37:53.028Z,3.83
2017-10-28T11:40:20.959Z,3.80
2017-10-28T11:42:48.772Z,4.90
2017-10-28T11:45:16.523Z,3.75
2017-10-28T11:47:44.297Z,5.25
2017-10-28T11:50:12.124Z,6.07
2017-10-28T11:52:39.874Z,3.90
2017-10-28T11:55:07.743Z,4.35
2017-10-28T11:57:35.585Z,4.40
2017-10-28T12:00:03.375Z,4.70
2017-10-28T12:02:31.175Z,4.12
2017-10-28T12:04:59.833Z,4.05
2017-10-28T12:07:27.603Z,4.75
2017-10-28T12:09:55.388Z,4.35
2017-10-28T12:12:23.965Z,4.50
2017-10-28T12:14:51.727Z,4.62
2017-10-28T12:17:20.409Z,4.47
2017-10-28T12:19:48.992Z,4.05
2017-10-28T12:22:17.504Z,5.28
2017-10-28T12:24:45.253Z,4.65
2017-10-28T12:27:13.061Z,4.22
2017-10-28T12:29:40.817Z,6.90
2017-10-28T12:32:08.571Z,5.60
2017-10-28T12:34:36.383Z,4.45
2017-10-28T12:37:04.925Z,4.30
2017-10-28T12:39:32.677Z,5.30
2017-10-28T12:42:00.488Z,4.75
2017-10-28T12:44:29.053Z,4.95
2017-10-28T12:46:57.580Z,4.93
2017-10-28T12:49:25.387Z,5.45
2017-10-28T12:51:53.138Z,7.40
2017-10-28T12:54:20.884Z,5.35
2017-10-28T12:56:48.691Z,5.62
2017-10-28T12:59:16.452Z,5.15
2017-10-28T13:01:44.234Z,6.60
2017-10-28T13:04:12.815Z,6.50
2017-10-28T13:06:41.332Z,5.00
2017-10-28T13:09:09.096Z,5.35
2017-10-28T13:11:36.901Z,4.37
2017-10-28T13:14:05.419Z,5.70
2017-10-28T13:16:33.165Z,5.30
2017-10-28T13:19:00.973Z,5.95
2017-10-28T13:21:29.497Z,4.50
2017-10-28T13:23:58.012Z,5.07
2017-10-28T13:26:25.845Z,4.65
2017-10-28T13:28:53.595Z,5.03
2017-10-28T13:31:22.109Z,5.20
2017-10-28T13:33:49.932Z,3.97
2017-10-28T13:36:17.689Z,5.40
2017-10-28T13:38:46.203Z,4.53
2017-10-28T13:41:14.011Z,5.57
2017-10-28T13:43:41.768Z,5.30
2017-10-28T13:46:09.520Z,5.53
2017-10-28T13:48:37.336Z,5.00
2017-10-28T13:51:05.852Z,4.30
2017-10-28T13:53:33.600Z,6.03
2017-10-28T13:56:01.406Z,5.90
2017-10-28T13:58:29.157Z,6.70
2017-10-28T14:00:56.909Z,5.15
2017-10-28T14:03:24.727Z,5.50
2017-10-28T14:05:52.475Z,4.70
2017-10-28T14:08:21.006Z,5.50
2017-10-28T14:10:48.836Z,6.93
2017-10-28T14:13:16.589Z,5.70
2017-10-28T14:15:46.360Z,5.18
2017-10-28T14:18:14.172Z,5.82
2017-10-28T14:20:41.932Z,5.60
2017-10-28T14:23:09.681Z,6.28
2017-10-28T14:25:38.260Z,5.35
2017-10-28T14:28:07.109Z,5.93
2017-10-28T14:30:34.871Z,6.25
2017-10-28T14:33:02.740Z,6.82
2017-10-28T14:35:30.493Z,5.90
2017-10-28T14:37:58.244Z,5.93
2017-10-28T14:40:26.072Z,6.07
2017-10-28T14:42:53.827Z,5.53
2017-10-28T14:45:21.583Z,4.90
2017-10-28T14:47:50.189Z,5.90
2017-10-28T14:50:17.952Z,5.12
2017-10-28T14:52:45.746Z,6.00
2017-10-28T14:55:13.565Z,6.15
2017-10-28T14:57:41.352Z,6.00
2017-10-28T15:00:09.104Z,6.50
2017-10-28T15:02:36.925Z,6.07
2017-10-28T15:05:05.460Z,6.32
2017-10-28T15:07:33.216Z,4.72
2017-10-28T15:10:01.032Z,5.50
2017-10-28T15:12:29.567Z,5.50
2017-10-28T15:14:58.092Z,5.75
2017-10-28T15:17:26.668Z,5.93
2017-10-28T15:19:55.210Z,5.70
2017-10-28T15:22:23.393Z,8.38
2017-10-28T15:24:51.303Z,6.03
2017-10-28T15:27:19.572Z,7.65
2017-10-28T15:29:47.599Z,6.30
2017-10-28T15:32:15.461Z,6.32
2017-10-28T15:34:43.326Z,6.82
2017-10-28T15:37:11.072Z,7.30
2017-10-28T15:39:38.951Z,6.07
2017-10-28T15:42:06.713Z,6.80
2017-10-28T15:44:34.460Z,6.78
2017-10-28T15:47:02.264Z,5.70
2017-10-28T15:49:30.783Z,6.22
2017-10-28T15:51:58.533Z,5.15
2017-10-28T15:54:26.442Z,7.18
2017-10-28T15:56:54.335Z,7.55
2017-10-28T15:59:22.990Z,6.45
2017-10-28T16:01:50.801Z,7.82
2017-10-28T16:04:18.547Z,7.37
2017-10-28T16:06:47.706Z,5.82
2017-10-28T16:09:15.521Z,6.53
2017-10-28T16:11:43.334Z,8.43
2017-10-28T16:14:11.080Z,6.82
2017-10-28T16:16:39.162Z,7.00
2017-10-28T16:19:06.920Z,5.45
2017-10-28T16:21:34.807Z,6.87
2017-10-28T16:24:02.756Z,7.55
2017-10-28T16:26:30.620Z,7.20
2017-10-28T16:28:58.483Z,5.65
2017-10-28T16:31:26.320Z,7.10
2017-10-28T16:33:54.086Z,7.53
2017-10-28T16:36:21.973Z,7.10
2017-10-28T16:38:49.815Z,6.90
2017-10-28T16:41:17.703Z,6.15
2017-10-28T16:43:45.564Z,6.20
2017-10-28T16:46:13.428Z,8.05
2017-10-28T16:48:41.191Z,6.45
2017-10-28T16:51:09.057Z,6.80
2017-10-28T16:53:36.863Z,6.32
2017-10-28T16:56:05.010Z,6.37
2017-10-28T16:58:32.769Z,6.82
2017-10-28T17:01:01.431Z,6.85
2017-10-28T17:03:29.216Z,6.37
2017-10-28T17:05:57.731Z,7.00
2017-10-28T17:08:25.555Z,5.80
2017-10-28T17:10:53.306Z,6.50
2017-10-28T17:13:21.060Z,5.20
2017-10-28T17:15:48.924Z,6.28
2017-10-28T17:18:16.991Z,7.12
2017-10-28T17:20:44.783Z,7.07
2017-10-28T17:23:13.358Z,7.87
2017-10-28T17:25:41.871Z,7.18
2017-10-28T17:28:09.620Z,6.57
2017-10-28T17:30:37.432Z,6.57
2017-10-28T17:33:05.180Z,6.60
2017-10-28T17:35:32.930Z,7.28
2017-10-28T17:38:00.787Z,5.95
2017-10-28T17:40:28.541Z,6.35
2017-10-28T17:42:56.291Z,5.85
2017-10-28T17:45:24.100Z,6.05
2017-10-28T17:47:51.852Z,6.68
2017-10-28T17:50:19.639Z,6.45
2017-10-28T17:52:47.447Z,5.12
2017-10-28T17:55:15.259Z,5.65
2017-10-28T17:57:43.121Z,6.10
2017-10-28T18:00:10.935Z,5.65
2017-10-28T18:02:38.712Z,5.03
2017-10-28T18:05:06.510Z,6.65
2017-10-28T18:07:34.325Z,5.00
2017-10-28T18:10:02.170Z,5.57
2017-10-28T18:12:30.690Z,5.68
2017-10-28T18:14:58.499Z,5.25
2017-10-28T18:17:27.072Z,7.30
2017-10-28T18:19:54.837Z,6.60
2017-10-28T18:22:23.913Z,6.40
2017-10-28T18:24:51.776Z,7.50
2017-10-28T18:27:20.296Z,7.00
2017-10-28T18:29:48.943Z,6.72
2017-10-28T18:32:16.703Z,7.80
2017-10-28T18:34:44.462Z,8.32
2017-10-28T18:37:12.287Z,7.03
2017-10-28T18:39:40.042Z,6.80
2017-10-28T18:42:07.848Z,7.20
2017-10-28T18:44:35.664Z,6.90
2017-10-28T18:47:03.444Z,6.93
2017-10-28T18:49:32.055Z,7.07
2017-10-28T18:51:59.874Z,7.10
2017-10-28T18:54:28.936Z,7.68
2017-10-28T18:56:58.956Z,6.60
2017-10-28T18:59:27.611Z,7.00
2017-10-28T19:01:55.466Z,7.40
2017-10-28T19:04:23.292Z,7.20
2017-10-28T19:06:51.112Z,8.20
2017-10-28T19:09:19.822Z,8.80
2017-10-28T19:11:48.340Z,8.13
2017-10-28T19:14:16.156Z,9.15
2017-10-28T19:16:44.683Z,6.75
2017-10-28T19:19:12.440Z,7.85
2017-10-28T19:21:40.252Z,8.27
2017-10-28T19:24:09.987Z,8.75
2017-10-28T19:26:39.444Z,7.47
2017-10-28T19:29:07.324Z,9.05
2017-10-28T19:31:35.983Z,9.10
2017-10-28T19:34:03.820Z,7.95
2017-10-28T19:36:31.631Z,8.88
2017-10-28T19:39:01.930Z,10.00
2017-10-28T19:41:29.797Z,9.45
2017-10-28T19:43:57.656Z,8.65
2017-10-28T19:46:26.006Z,9.27
2017-10-28T19:48:53.897Z,11.32
2017-10-28T19:51:21.762Z,8.75
2017-10-28T19:53:49.624Z,9.10
2017-10-28T19:56:17.394Z,8.32
2017-10-28T19:58:46.072Z,8.88
2017-10-28T20:01:13.933Z,8.63
2017-10-28T20:03:41.801Z,7.45
2017-10-28T20:06:09.674Z,8.23
2017-10-28T20:08:37.448Z,8.32
2017-10-28T20:11:06.927Z,7.78
2017-10-28T20:13:34.996Z,8.43
2017-10-28T20:16:03.166Z,7.85
2017-10-28T20:18:31.131Z,9.90
2017-10-28T20:20:59.222Z,8.05
2017-10-28T20:23:27.166Z,8.90
2017-10-28T20:25:55.008Z,8.65
2017-10-28T20:28:22.830Z,9.43
2017-10-28T20:30:50.758Z,9.63
2017-10-28T20:33:18.508Z,7.57
2017-10-28T20:35:47.621Z,8.40
2017-10-28T20:38:16.216Z,9.90
2017-10-28T20:40:44.058Z,11.00
2017-10-28T20:43:12.024Z,10.52
2017-10-28T20:45:39.993Z,9.15
2017-10-28T20:48:07.745Z,8.55
2017-10-28T20:50:37.028Z,8.98
2017-10-28T20:53:04.915Z,8.07
2017-10-28T20:55:32.780Z,7.55
2017-10-28T20:58:00.632Z,7.65
2017-10-28T21:00:28.460Z,7.07
2017-10-28T21:02:56.243Z,7.07
2017-10-28T21:05:24.056Z,6.65
2017-10-28T21:07:53.387Z,7.45
2017-10-28T21:10:21.987Z,7.57
2017-10-28T21:12:50.736Z,5.82
2017-10-28T21:15:19.257Z,5.97
2017-10-28T21:17:47.004Z,7.53
2017-10-28T21:20:14.980Z,6.10
2017-10-28T21:22:43.584Z,7.60
2017-10-28T21:25:12.162Z,6.10
2017-10-28T21:27:40.027Z,6.10
2017-10-28T21:30:07.891Z,6.18
2017-10-28T21:32:35.639Z,5.93
2017-10-28T21:35:03.444Z,5.90
2017-10-28T21:37:32.680Z,8.57
2017-10-28T21:40:00.472Z,6.72
2017-10-28T21:42:28.336Z,6.10
2017-10-28T21:44:56.108Z,8.23
2017-10-28T21:47:24.883Z,7.32
2017-10-28T21:49:52.893Z,8.05
2017-10-28T21:52:22.038Z,6.20
2017-10-28T21:54:49.792Z,6.57
2017-10-28T21:57:17.607Z,7.45
2017-10-28T21:59:46.251Z,7.03
2017-10-28T22:02:14.000Z,6.75
2017-10-28T22:04:41.875Z,7.10
2017-10-28T22:07:09.752Z,7.20
2017-10-28T22:09:37.501Z,7.60
2017-10-28T22:12:05.320Z,7.20
2017-10-28T22:14:33.073Z,7.87
2017-10-28T22:17:00.890Z,5.28
2017-10-28T22:19:28.754Z,5.90
2017-10-28T22:21:56.524Z,6.35
2017-10-28T22:24:24.378Z,6.10
2017-10-28T22:26:52.244Z,4.82
2017-10-28T22:29:19.995Z,4.87
2017-10-28T22:31:47.868Z,5.12
2017-10-28T22:34:15.684Z,4.10
2017-10-28T22:36:43.494Z,3.70
2017-10-28T22:39:11.372Z,4.35
2017-10-28T22:41:39.221Z,3.03
2017-10-28T22:44:06.986Z,3.20
2017-10-28T22:46:34.848Z,3.37
2017-10-28T22:49:02.716Z,3.30
2017-10-28T22:51:30.574Z,3.62
2017-10-28T22:53:58.440Z,3.15
2017-10-28T22:56:26.302Z,2.03
2017-10-28T22:58:54.169Z,2.15
2017-10-28T23:01:21.912Z,2.15
2017-10-28T23:03:49.795Z,1.77
2017-10-28T23:06:17.544Z,1.95
2017-10-28T23:08:45.316Z,1.67
2017-10-28T23:11:13.143Z,1.52
2017-10-28T23:13:40.914Z,1.55
2017-10-28T23:16:08.672Z,1.30
2017-10-28T23:18:36.476Z,1.20
2017-10-28T23:21:04.328Z,1.40
2017-10-28T23:23:32.089Z,1.37
2017-10-28T23:25:59.896Z,1.17
2017-10-28T23:28:27.668Z,0.98
2017-10-28T23:30:55.485Z,0.98
2017-10-28T23:33:23.341Z,1.10
2017-10-28T23:35:51.102Z,1.20
2017-10-28T23:38:18.940Z,1.00
2017-10-28T23:40:46.753Z,1.30
2017-10-28T23:43:15.411Z,1.65
2017-10-28T23:45:43.276Z,1.17
2017-10-28T23:48:11.242Z,1.15
2017-10-28T23:50:39.002Z,1.70
2017-10-28T23:53:06.868Z,1.70
2017-10-28T23:55:34.764Z,1.90
2017-10-28T23:58:03.391Z,1.30
